<?xml version="1.0" encoding="UTF-8" standalone="no" ?>
<gpx xmlns="http://www.topografix.com/GPX/1/1" xmlns:xsi="http://www.w3.org/2001/XMLSchema-instance" xsi:schemaLocation="http://www.topografix.com/GPX/1/1 http://www.topografix.com/GPX/1/1/gpx.xsd" version="1.1" creator="VisuGPX - https://www.visugpx.com">
  <metadata>
    <name>Pioch Michel et Pioch Madame, deux sommets pour le panorama</name>
    <desc><![CDATA[Rando Gardiole 108 m de denivellé]]></desc>
  </metadata>
  <wpt lat="43.46039" lon="3.74895">
    <ele>62</ele>
    <name><![CDATA[Départ depuis petit parking]]></name>
  </wpt>
  <wpt lat="43.46445" lon="3.74949">
    <ele>106</ele>
    <name><![CDATA[Jonction avec la boucle autour du Pioch Michel]]></name>
  </wpt>
  <wpt lat="43.4672" lon="3.75173">
    <ele>112</ele>
    <name><![CDATA[Bifurcation en direction du Pioch Madame]]></name>
  </wpt>
  <wpt lat="43.46724" lon="3.7521">
    <ele>112</ele>
    <name><![CDATA[Bifurcation en direction du Pioch Madame]]></name>
  </wpt>
  <wpt lat="43.46982" lon="3.75413">
    <ele>117</ele>
    <name><![CDATA[Citerne 191]]></name>
  </wpt>
  <wpt lat="43.47164" lon="3.75643">
    <ele>148</ele>
    <name><![CDATA[Sommet du Pioch Madame]]></name>
  </wpt>
  <wpt lat="43.46317" lon="3.75144">
    <ele>134</ele>
    <name><![CDATA[Sommet du Pioch Michel]]></name>
  </wpt>
  <wpt lat="43.46327" lon="3.75176">
    <ele>136</ele>
    <name><![CDATA[ Panorama, sommet du Pioch Michel]]></name>
  </wpt>
  <wpt lat="43.465" lon="3.75225">
    <ele>132</ele>
    <name><![CDATA[Bifurcation pour le sommet du Pioch Michel]]></name>
  </wpt>
  <wpt lat="43.46039" lon="3.74895">
    <ele>62</ele>
    <name><![CDATA[Retour sur petit parking]]></name>
  </wpt>
  <trk>
    <name><![CDATA[Pioch Michel et Pioch Madame, deux sommets pour le panorama]]></name>
    <trkseg>
      <trkpt lat="43.46039" lon="3.74895">
        <ele>62</ele>
        <time>2021-11-22T06:56:55+01:00</time>
      </trkpt>
      <trkpt lat="43.46057" lon="3.74874">
        <ele>63</ele>
        <time>2021-11-22T06:57:00+01:00</time>
      </trkpt>
      <trkpt lat="43.46092" lon="3.74865">
        <ele>67</ele>
        <time>2021-11-22T06:57:05+01:00</time>
      </trkpt>
      <trkpt lat="43.4614" lon="3.74874">
        <ele>74</ele>
        <time>2021-11-22T06:57:10+01:00</time>
      </trkpt>
      <trkpt lat="43.46173" lon="3.74888">
        <ele>79</ele>
        <time>2021-11-22T06:57:15+01:00</time>
      </trkpt>
      <trkpt lat="43.46201" lon="3.74874">
        <ele>81</ele>
        <time>2021-11-22T06:57:20+01:00</time>
      </trkpt>
      <trkpt lat="43.46273" lon="3.74891">
        <ele>91</ele>
        <time>2021-11-22T06:57:25+01:00</time>
      </trkpt>
      <trkpt lat="43.46309" lon="3.74889">
        <ele>94</ele>
        <time>2021-11-22T06:57:30+01:00</time>
      </trkpt>
      <trkpt lat="43.46344" lon="3.749">
        <ele>97</ele>
        <time>2021-11-22T06:57:35+01:00</time>
      </trkpt>
      <trkpt lat="43.46384" lon="3.74929">
        <ele>102</ele>
        <time>2021-11-22T06:57:40+01:00</time>
      </trkpt>
      <trkpt lat="43.46418" lon="3.74946">
        <ele>105</ele>
        <time>2021-11-22T06:57:45+01:00</time>
      </trkpt>
      <trkpt lat="43.46445" lon="3.74949">
        <ele>106</ele>
        <time>2021-11-22T06:57:50+01:00</time>
      </trkpt>
      <trkpt lat="43.46473" lon="3.74958">
        <ele>108</ele>
        <time>2021-11-22T06:57:55+01:00</time>
      </trkpt>
      <trkpt lat="43.46518" lon="3.74962">
        <ele>108</ele>
        <time>2021-11-22T06:58:00+01:00</time>
      </trkpt>
      <trkpt lat="43.46565" lon="3.74998">
        <ele>113</ele>
        <time>2021-11-22T06:58:05+01:00</time>
      </trkpt>
      <trkpt lat="43.46656" lon="3.75082">
        <ele>113</ele>
        <time>2021-11-22T06:58:10+01:00</time>
      </trkpt>
      <trkpt lat="43.467" lon="3.75132">
        <ele>111</ele>
        <time>2021-11-22T06:58:15+01:00</time>
      </trkpt>
      <trkpt lat="43.46713" lon="3.75159">
        <ele>112</ele>
        <time>2021-11-22T06:58:20+01:00</time>
      </trkpt>
      <trkpt lat="43.4672" lon="3.75173">
        <ele>112</ele>
        <time>2021-11-22T06:58:25+01:00</time>
      </trkpt>
      <trkpt lat="43.46719" lon="3.75198">
        <ele>112</ele>
        <time>2021-11-22T06:58:30+01:00</time>
      </trkpt>
      <trkpt lat="43.46724" lon="3.7521">
        <ele>112</ele>
        <time>2021-11-22T06:58:35+01:00</time>
      </trkpt>
      <trkpt lat="43.46738" lon="3.75223">
        <ele>111</ele>
        <time>2021-11-22T06:58:40+01:00</time>
      </trkpt>
      <trkpt lat="43.46754" lon="3.75236">
        <ele>111</ele>
        <time>2021-11-22T06:58:45+01:00</time>
      </trkpt>
      <trkpt lat="43.4677" lon="3.75247">
        <ele>112</ele>
        <time>2021-11-22T06:58:50+01:00</time>
      </trkpt>
      <trkpt lat="43.46792" lon="3.75263">
        <ele>112</ele>
        <time>2021-11-22T06:58:55+01:00</time>
      </trkpt>
      <trkpt lat="43.46796" lon="3.75275">
        <ele>112</ele>
        <time>2021-11-22T06:59:00+01:00</time>
      </trkpt>
      <trkpt lat="43.46797" lon="3.75316">
        <ele>112</ele>
        <time>2021-11-22T06:59:05+01:00</time>
      </trkpt>
      <trkpt lat="43.46808" lon="3.75337">
        <ele>112</ele>
        <time>2021-11-22T06:59:10+01:00</time>
      </trkpt>
      <trkpt lat="43.46877" lon="3.75341">
        <ele>112</ele>
        <time>2021-11-22T06:59:15+01:00</time>
      </trkpt>
      <trkpt lat="43.46963" lon="3.75373">
        <ele>114</ele>
        <time>2021-11-22T06:59:20+01:00</time>
      </trkpt>
      <trkpt lat="43.46982" lon="3.75413">
        <ele>117</ele>
        <time>2021-11-22T06:59:25+01:00</time>
      </trkpt>
      <trkpt lat="43.46995" lon="3.75422">
        <ele>119</ele>
        <time>2021-11-22T06:59:30+01:00</time>
      </trkpt>
      <trkpt lat="43.47015" lon="3.75424">
        <ele>122</ele>
        <time>2021-11-22T06:59:35+01:00</time>
      </trkpt>
      <trkpt lat="43.47043" lon="3.75412">
        <ele>125</ele>
        <time>2021-11-22T06:59:40+01:00</time>
      </trkpt>
      <trkpt lat="43.47147" lon="3.75413">
        <ele>137</ele>
        <time>2021-11-22T06:59:45+01:00</time>
      </trkpt>
      <trkpt lat="43.47189" lon="3.75398">
        <ele>140</ele>
        <time>2021-11-22T06:59:50+01:00</time>
      </trkpt>
      <trkpt lat="43.47195" lon="3.75411">
        <ele>141</ele>
        <time>2021-11-22T06:59:55+01:00</time>
      </trkpt>
      <trkpt lat="43.47167" lon="3.7552">
        <ele>146</ele>
        <time>2021-11-22T07:00:00+01:00</time>
      </trkpt>
      <trkpt lat="43.47153" lon="3.75604">
        <ele>148</ele>
        <time>2021-11-22T07:00:05+01:00</time>
      </trkpt>
      <trkpt lat="43.47164" lon="3.75643">
        <ele>148</ele>
        <time>2021-11-22T07:00:10+01:00</time>
      </trkpt>
      <trkpt lat="43.47164" lon="3.75643">
        <ele>148</ele>
        <time>2021-11-22T07:00:15+01:00</time>
      </trkpt>
      <trkpt lat="43.47153" lon="3.75604">
        <ele>148</ele>
        <time>2021-11-22T07:00:20+01:00</time>
      </trkpt>
      <trkpt lat="43.47167" lon="3.7552">
        <ele>146</ele>
        <time>2021-11-22T07:00:25+01:00</time>
      </trkpt>
      <trkpt lat="43.47195" lon="3.75411">
        <ele>141</ele>
        <time>2021-11-22T07:00:30+01:00</time>
      </trkpt>
      <trkpt lat="43.47189" lon="3.75398">
        <ele>140</ele>
        <time>2021-11-22T07:00:35+01:00</time>
      </trkpt>
      <trkpt lat="43.47147" lon="3.75413">
        <ele>137</ele>
        <time>2021-11-22T07:00:40+01:00</time>
      </trkpt>
      <trkpt lat="43.47043" lon="3.75412">
        <ele>125</ele>
        <time>2021-11-22T07:00:45+01:00</time>
      </trkpt>
      <trkpt lat="43.47015" lon="3.75424">
        <ele>122</ele>
        <time>2021-11-22T07:00:50+01:00</time>
      </trkpt>
      <trkpt lat="43.46995" lon="3.75422">
        <ele>119</ele>
        <time>2021-11-22T07:00:55+01:00</time>
      </trkpt>
      <trkpt lat="43.46982" lon="3.75413">
        <ele>117</ele>
        <time>2021-11-22T07:01:00+01:00</time>
      </trkpt>
      <trkpt lat="43.46963" lon="3.75373">
        <ele>114</ele>
        <time>2021-11-22T07:01:05+01:00</time>
      </trkpt>
      <trkpt lat="43.46877" lon="3.75341">
        <ele>112</ele>
        <time>2021-11-22T07:01:10+01:00</time>
      </trkpt>
      <trkpt lat="43.46808" lon="3.75337">
        <ele>112</ele>
        <time>2021-11-22T07:01:15+01:00</time>
      </trkpt>
      <trkpt lat="43.46797" lon="3.75316">
        <ele>112</ele>
        <time>2021-11-22T07:01:20+01:00</time>
      </trkpt>
      <trkpt lat="43.46796" lon="3.75275">
        <ele>112</ele>
        <time>2021-11-22T07:01:25+01:00</time>
      </trkpt>
      <trkpt lat="43.46792" lon="3.75263">
        <ele>112</ele>
        <time>2021-11-22T07:01:30+01:00</time>
      </trkpt>
      <trkpt lat="43.4677" lon="3.75247">
        <ele>112</ele>
        <time>2021-11-22T07:01:35+01:00</time>
      </trkpt>
      <trkpt lat="43.46754" lon="3.75236">
        <ele>111</ele>
        <time>2021-11-22T07:01:40+01:00</time>
      </trkpt>
      <trkpt lat="43.46738" lon="3.75223">
        <ele>111</ele>
        <time>2021-11-22T07:01:45+01:00</time>
      </trkpt>
      <trkpt lat="43.46724" lon="3.7521">
        <ele>112</ele>
        <time>2021-11-22T07:01:50+01:00</time>
      </trkpt>
      <trkpt lat="43.46719" lon="3.75198">
        <ele>112</ele>
        <time>2021-11-22T07:01:55+01:00</time>
      </trkpt>
      <trkpt lat="43.46703" lon="3.75195">
        <ele>114</ele>
        <time>2021-11-22T07:02:00+01:00</time>
      </trkpt>
      <trkpt lat="43.4669" lon="3.75189">
        <ele>115</ele>
        <time>2021-11-22T07:02:05+01:00</time>
      </trkpt>
      <trkpt lat="43.46678" lon="3.75192">
        <ele>116</ele>
        <time>2021-11-22T07:02:10+01:00</time>
      </trkpt>
      <trkpt lat="43.46621" lon="3.75194">
        <ele>122</ele>
        <time>2021-11-22T07:02:15+01:00</time>
      </trkpt>
      <trkpt lat="43.46535" lon="3.75217">
        <ele>129</ele>
        <time>2021-11-22T07:02:20+01:00</time>
      </trkpt>
      <trkpt lat="43.46507" lon="3.75227">
        <ele>131</ele>
        <time>2021-11-22T07:02:25+01:00</time>
      </trkpt>
      <trkpt lat="43.46446" lon="3.75218">
        <ele>135</ele>
        <time>2021-11-22T07:02:30+01:00</time>
      </trkpt>
      <trkpt lat="43.46404" lon="3.75201">
        <ele>138</ele>
        <time>2021-11-22T07:02:35+01:00</time>
      </trkpt>
      <trkpt lat="43.46382" lon="3.75187">
        <ele>138</ele>
        <time>2021-11-22T07:02:40+01:00</time>
      </trkpt>
      <trkpt lat="43.4635" lon="3.75155">
        <ele>138</ele>
        <time>2021-11-22T07:02:45+01:00</time>
      </trkpt>
      <trkpt lat="43.46317" lon="3.75144">
        <ele>134</ele>
        <time>2021-11-22T07:02:50+01:00</time>
      </trkpt>
      <trkpt lat="43.46327" lon="3.75176">
        <ele>136</ele>
        <time>2021-11-22T07:02:55+01:00</time>
      </trkpt>
      <trkpt lat="43.46391" lon="3.75197">
        <ele>138</ele>
        <time>2021-11-22T07:03:00+01:00</time>
      </trkpt>
      <trkpt lat="43.46462" lon="3.75224">
        <ele>134</ele>
        <time>2021-11-22T07:03:05+01:00</time>
      </trkpt>
      <trkpt lat="43.465" lon="3.75225">
        <ele>132</ele>
        <time>2021-11-22T07:03:10+01:00</time>
      </trkpt>
      <trkpt lat="43.46494" lon="3.75234">
        <ele>131</ele>
        <time>2021-11-22T07:03:15+01:00</time>
      </trkpt>
      <trkpt lat="43.46458" lon="3.75247">
        <ele>130</ele>
        <time>2021-11-22T07:03:20+01:00</time>
      </trkpt>
      <trkpt lat="43.4641" lon="3.75253">
        <ele>131</ele>
        <time>2021-11-22T07:03:25+01:00</time>
      </trkpt>
      <trkpt lat="43.46359" lon="3.75244">
        <ele>130</ele>
        <time>2021-11-22T07:03:30+01:00</time>
      </trkpt>
      <trkpt lat="43.46309" lon="3.75228">
        <ele>128</ele>
        <time>2021-11-22T07:03:35+01:00</time>
      </trkpt>
      <trkpt lat="43.46277" lon="3.752">
        <ele>127</ele>
        <time>2021-11-22T07:03:40+01:00</time>
      </trkpt>
      <trkpt lat="43.46251" lon="3.75174">
        <ele>127</ele>
        <time>2021-11-22T07:03:45+01:00</time>
      </trkpt>
      <trkpt lat="43.46229" lon="3.75119">
        <ele>120</ele>
        <time>2021-11-22T07:03:50+01:00</time>
      </trkpt>
      <trkpt lat="43.46236" lon="3.75087">
        <ele>120</ele>
        <time>2021-11-22T07:03:55+01:00</time>
      </trkpt>
      <trkpt lat="43.46251" lon="3.75059">
        <ele>119</ele>
        <time>2021-11-22T07:04:00+01:00</time>
      </trkpt>
      <trkpt lat="43.46275" lon="3.75044">
        <ele>118</ele>
        <time>2021-11-22T07:04:05+01:00</time>
      </trkpt>
      <trkpt lat="43.46349" lon="3.7498">
        <ele>111</ele>
        <time>2021-11-22T07:04:10+01:00</time>
      </trkpt>
      <trkpt lat="43.46382" lon="3.74968">
        <ele>109</ele>
        <time>2021-11-22T07:04:15+01:00</time>
      </trkpt>
      <trkpt lat="43.46408" lon="3.74967">
        <ele>109</ele>
        <time>2021-11-22T07:04:20+01:00</time>
      </trkpt>
      <trkpt lat="43.46437" lon="3.74949">
        <ele>106</ele>
        <time>2021-11-22T07:04:25+01:00</time>
      </trkpt>
      <trkpt lat="43.46415" lon="3.74947">
        <ele>105</ele>
        <time>2021-11-22T07:04:30+01:00</time>
      </trkpt>
      <trkpt lat="43.46384" lon="3.74929">
        <ele>102</ele>
        <time>2021-11-22T07:04:35+01:00</time>
      </trkpt>
      <trkpt lat="43.46344" lon="3.749">
        <ele>97</ele>
        <time>2021-11-22T07:04:40+01:00</time>
      </trkpt>
      <trkpt lat="43.46309" lon="3.74889">
        <ele>94</ele>
        <time>2021-11-22T07:04:45+01:00</time>
      </trkpt>
      <trkpt lat="43.46273" lon="3.74891">
        <ele>91</ele>
        <time>2021-11-22T07:04:50+01:00</time>
      </trkpt>
      <trkpt lat="43.46201" lon="3.74874">
        <ele>81</ele>
        <time>2021-11-22T07:04:55+01:00</time>
      </trkpt>
      <trkpt lat="43.46173" lon="3.74888">
        <ele>79</ele>
        <time>2021-11-22T07:05:00+01:00</time>
      </trkpt>
      <trkpt lat="43.4614" lon="3.74874">
        <ele>74</ele>
        <time>2021-11-22T07:05:05+01:00</time>
      </trkpt>
      <trkpt lat="43.46092" lon="3.74865">
        <ele>67</ele>
        <time>2021-11-22T07:05:10+01:00</time>
      </trkpt>
      <trkpt lat="43.46057" lon="3.74874">
        <ele>63</ele>
        <time>2021-11-22T07:05:15+01:00</time>
      </trkpt>
      <trkpt lat="43.46039" lon="3.74895">
        <ele>62</ele>
        <time>2021-11-22T07:05:20+01:00</time>
      </trkpt>
    </trkseg>
  </trk>
</gpx>